KFTW/FTW METAR and TAF weather

Enter ICAO airport designator
Station Type Date Time Source
KFTW METAR 2018/12/19 09:45 UTC NOAA

KFTW 190945Z 19009KT 2SM BR OVC002 11/11 A2990 RMK AO2 T01110106


Station Type Date Time Source
KFTW Decoded METAR 2018/12/19 09:45 UTC NOAA

FORT WORTH MEACHAM INTERNATIONAL ., TX, United States (KFTW) 32-50N 097-22W 214M
Dec 19, 2018 - 04:45 AM EST / 2018.12.19 0945 UTC
Wind: from the S (190 degrees) at 10 MPH (9 KT):0
Visibility: 2 mile(s):0
Sky conditions: overcast
Weather: mist
Temperature: 52.0 F (11.1 C)
Dew Point: 51.1 F (10.6 C)
Relative Humidity: 96%
Pressure (altimeter): 29.9 in. Hg (1012 hPa)
ob: KFTW 190945Z 19009KT 2SM BR OVC002 11/11 A2990 RMK AO2 T01110106
cycle: 10

Station Type Date Time Source
KFTW TAF 2018/12/19 09:18 UTC NOAA

TAF
AMD KFTW 190915Z 1909/2006 15006KT 5SM BR OVC005
FM191000 16005KT 2SM BR OVC004
TEMPO 1910/1914 1SM BR OVC003
FM191600 16006KT 5SM BR OVC008
FM191800 19005KT P6SM BKN015 BKN250
FM200000 01003KT P6SM BKN035 OVC120


Example: see airport list